Time;durP1;ratioP1;P1;durP2;ratioP2;P2;SDS_P1;SDS_P2;PMS_P1;PMS_P2;Temp;Humidity;BMP_temperature;BMP_pressure;BME280_temperature;BME280_humidity;BME280_pressure;Samples;Min_cycle;Max_cycle;Signal;HPM_P1;HPM_P2
2023/06/18 00:01:02;;;;;;;5.18;4.68;;;20.20;99.90;;;;;;5087183;28;20621;-64
2023/06/18 00:03:30;;;;;;;4.90;4.45;;;20.20;99.90;;;;;;5085142;28;20221;-64
2023/06/18 00:05:57;;;;;;;3.90;3.60;;;20.10;99.90;;;;;;5085927;28;20201;-64
2023/06/18 00:08:26;;;;;;;3.67;3.38;;;20.20;99.90;;;;;;5088224;28;20695;-64
2023/06/18 00:10:53;;;;;;;3.30;3.00;;;20.20;99.90;;;;;;5086736;28;20272;-64
2023/06/18 00:13:21;;;;;;;2.80;2.60;;;20.10;99.90;;;;;;5087681;28;20568;-64
2023/06/18 00:15:48;;;;;;;2.70;2.50;;;20.20;99.90;;;;;;5088769;28;20200;-64
2023/06/18 00:18:16;;;;;;;2.53;2.33;;;20.20;99.90;;;;;;5084019;28;20652;-64
2023/06/18 00:20:43;;;;;;;2.83;2.63;;;20.10;99.90;;;;;;5083356;28;20250;-64
2023/06/18 00:23:11;;;;;;;4.35;2.83;;;20.20;99.90;;;;;;5083358;28;20567;-64
2023/06/18 00:25:40;;;;;;;2.92;2.63;;;20.10;99.90;;;;;;5082257;28;20199;-64
2023/06/18 00:28:07;;;;;;;2.40;2.30;;;20.20;99.90;;;;;;5088791;28;20213;-63
2023/06/18 00:30:34;;;;;;;2.13;2.03;;;20.10;99.90;;;;;;5087862;28;20278;-63
2023/06/18 00:33:03;;;;;;;2.58;2.38;;;20.10;99.90;;;;;;5087088;28;20211;-64
2023/06/18 00:35:31;;;;;;;2.80;2.60;;;20.10;99.90;;;;;;5088483;28;20192;-64
2023/06/18 00:38:03;;;;;;;2.83;2.63;;;20.00;99.90;;;;;;5092044;28;20566;-64
2023/06/18 00:40:30;;;;;;;2.33;2.13;;;20.00;99.90;;;;;;5088660;28;20203;-64
2023/06/18 00:43:03;;;;;;;2.70;2.50;;;19.90;99.90;;;;;;5088258;28;20303;-64
2023/06/18 00:45:30;;;;;;;2.40;2.30;;;19.90;99.90;;;;;;5091683;28;20267;-64
2023/06/18 00:47:58;;;;;;;2.80;2.60;;;19.90;99.90;;;;;;5088942;28;20215;-64
2023/06/18 00:50:27;;;;;;;2.30;2.20;;;19.90;99.90;;;;;;5087023;28;20280;-64
2023/06/18 00:52:59;;;;;;;3.88;2.50;;;19.90;99.90;;;;;;5092902;28;20678;-64
2023/06/18 00:55:29;;;;;;;2.10;2.00;;;20.00;99.90;;;;;;5089967;28;20199;-64
2023/06/18 00:58:03;;;;;;;2.20;2.10;;;20.00;99.90;;;;;;5092165;28;20730;-64
2023/06/18 01:00:32;;;;;;;1.98;1.88;;;20.00;99.90;;;;;;5085931;28;20208;-65
2023/06/18 01:03:02;;;;;;;2.17;2.08;;;19.90;99.90;;;;;;5093587;28;20200;-65
2023/06/18 01:05:31;;;;;;;2.50;2.40;;;19.80;99.90;;;;;;5093029;28;20283;-63
2023/06/18 01:08:05;;;;;;;1.70;1.60;;;19.80;99.90;;;;;;5101299;28;20264;-64
2023/06/18 01:10:33;;;;;;;1.98;1.88;;;19.80;99.90;;;;;;5091999;28;20207;-63
2023/06/18 01:13:02;;;;;;;2.00;1.90;;;19.70;99.90;;;;;;5090623;28;20207;-63
2023/06/18 01:15:30;;;;;;;2.22;2.13;;;19.70;99.90;;;;;;5086373;28;20616;-64
2023/06/18 01:17:59;;;;;;;2.65;2.47;;;19.70;99.90;;;;;;5090333;28;20196;-64
2023/06/18 01:20:30;;;;;;;2.17;2.00;;;19.70;99.90;;;;;;5088188;28;20220;-63
2023/06/18 01:23:00;;;;;;;2.10;2.00;;;19.70;99.90;;;;;;5083174;28;20536;-64
2023/06/18 01:25:32;;;;;;;2.55;2.35;;;19.70;99.90;;;;;;5087895;28;20192;-64
2023/06/18 01:28:07;;;;;;;1.88;1.77;;;19.60;99.90;;;;;;5100760;27;20687;-64
2023/06/18 01:30:36;;;;;;;1.85;1.75;;;19.60;99.90;;;;;;5085543;28;20300;-64
2023/06/18 01:33:04;;;;;;;1.73;1.63;;;19.60;99.90;;;;;;5091092;28;20231;-64
2023/06/18 01:35:31;;;;;;;1.95;1.83;;;19.60;99.90;;;;;;5086953;28;20197;-64
2023/06/18 01:38:28;;;;;;;2.00;1.90;;;19.60;99.90;;;;;;5090846;28;20188;-64
2023/06/18 01:41:01;;;;;;;2.17;2.08;;;19.60;99.90;;;;;;5091716;28;20196;-64
2023/06/18 01:43:37;;;;;;;2.22;2.08;;;19.50;99.90;;;;;;5083221;28;20195;-64
2023/06/18 01:46:07;;;;;;;2.10;2.00;;;19.50;99.90;;;;;;5089235;28;20199;-64
2023/06/18 01:48:37;;;;;;;2.10;2.00;;;19.50;99.90;;;;;;5085778;28;20235;-64
2023/06/18 01:51:06;;;;;;;1.90;1.80;;;19.50;99.90;;;;;;5091555;28;20184;-64
2023/06/18 01:53:36;;;;;;;2.22;1.80;;;19.50;99.90;;;;;;5090805;28;20204;-64
2023/06/18 01:56:04;;;;;;;2.30;2.20;;;19.50;99.90;;;;;;5087359;28;20193;-65
2023/06/18 01:58:36;;;;;;;2.10;2.00;;;19.50;99.90;;;;;;5089791;28;20200;-65
2023/06/18 02:01:03;;;;;;;2.13;1.98;;;19.50;99.90;;;;;;5089077;28;20203;-64
2023/06/18 02:03:31;;;;;;;1.92;1.83;;;19.50;99.90;;;;;;5079493;28;20200;-65
2023/06/18 02:06:01;;;;;;;1.90;1.80;;;19.50;99.90;;;;;;5084083;28;20674;-64
2023/06/18 02:08:28;;;;;;;2.47;2.33;;;19.40;99.90;;;;;;5088683;28;20714;-64
2023/06/18 02:10:56;;;;;;;2.25;2.15;;;19.40;99.90;;;;;;5086781;28;20193;-64
2023/06/18 02:13:26;;;;;;;2.10;2.00;;;19.50;99.90;;;;;;5082677;28;20193;-63
2023/06/18 02:15:56;;;;;;;2.10;2.00;;;19.50;99.90;;;;;;5089701;28;20741;-63
2023/06/18 02:18:24;;;;;;;2.40;2.20;;;19.60;99.90;;;;;;5095002;28;20274;-63
2023/06/18 02:20:52;;;;;;;2.08;1.98;;;19.50;99.90;;;;;;5074726;28;20607;-63
2023/06/18 02:23:20;;;;;;;2.20;2.10;;;19.60;99.90;;;;;;5086460;28;20235;-63
2023/06/18 02:25:48;;;;;;;2.00;1.90;;;19.60;99.90;;;;;;5089877;28;20216;-64
2023/06/18 02:28:16;;;;;;;2.03;1.92;;;19.60;99.90;;;;;;5090834;28;20219;-63
2023/06/18 02:30:43;;;;;;;2.42;2.28;;;19.60;99.90;;;;;;5089124;28;20197;-63
2023/06/18 02:33:12;;;;;;;1.83;1.73;;;19.60;99.90;;;;;;5089186;28;20204;-64
2023/06/18 02:35:40;;;;;;;1.85;1.75;;;19.60;99.90;;;;;;5086121;28;20188;-64
2023/06/18 02:38:07;;;;;;;2.30;2.20;;;19.60;99.90;;;;;;5080934;28;20200;-63
2023/06/18 02:40:35;;;;;;;2.40;2.30;;;19.50;99.90;;;;;;5090784;28;20540;-63
2023/06/18 02:43:06;;;;;;;1.73;1.65;;;19.50;99.90;;;;;;5089051;28;20189;-63
2023/06/18 02:45:33;;;;;;;1.98;1.88;;;19.50;99.90;;;;;;5080053;28;20196;-64
2023/06/18 02:48:01;;;;;;;2.17;2.08;;;19.40;99.90;;;;;;5083930;28;20311;-63
2023/06/18 02:50:31;;;;;;;2.83;2.30;;;19.40;99.90;;;;;;5089222;28;20196;-64
2023/06/18 02:52:59;;;;;;;2.30;2.20;;;19.40;99.90;;;;;;5081775;28;20368;-64
2023/06/18 02:55:26;;;;;;;2.10;2.00;;;19.40;99.90;;;;;;5084240;28;20205;-63
2023/06/18 02:57:54;;;;;;;2.00;1.90;;;19.40;99.90;;;;;;5093236;28;20211;-64
2023/06/18 03:00:22;;;;;;;2.10;2.00;;;19.40;99.90;;;;;;5085621;28;20200;-64
2023/06/18 03:02:50;;;;;;;1.92;1.83;;;19.40;99.90;;;;;;5070239;28;20204;-64
2023/06/18 03:05:23;;;;;;;2.58;1.80;;;19.30;99.90;;;;;;5085459;28;20202;-64
2023/06/18 03:07:52;;;;;;;1.85;1.75;;;19.40;99.90;;;;;;5073655;28;20264;-64
2023/06/18 03:10:21;;;;;;;2.00;1.90;;;19.40;99.90;;;;;;5088589;28;20960;-64
2023/06/18 03:12:52;;;;;;;1.90;1.80;;;19.40;99.90;;;;;;5086653;28;20716;-64
2023/06/18 03:15:32;;;;;;;2.67;2.47;;;19.40;99.90;;;;;;5083946;28;20203;-64
2023/06/18 03:18:00;;;;;;;3.17;2.97;;;19.40;99.90;;;;;;5089365;28;20644;-64
2023/06/18 03:20:29;;;;;;;2.72;2.53;;;19.40;99.90;;;;;;5083611;28;20672;-64
2023/06/18 03:23:00;;;;;;;2.70;2.50;;;19.40;99.90;;;;;;5085594;28;20200;-64
2023/06/18 03:25:28;;;;;;;3.33;3.03;;;19.40;99.90;;;;;;5088714;28;20196;-64
2023/06/18 03:27:58;;;;;;;4.28;3.33;;;19.40;99.90;;;;;;5084949;28;20201;-64
2023/06/18 03:30:28;;;;;;;2.85;2.65;;;19.40;99.90;;;;;;5093895;28;20680;-64
2023/06/18 03:33:00;;;;;;;2.50;2.40;;;19.40;99.90;;;;;;5087106;28;20204;-64
2023/06/18 03:35:28;;;;;;;4.30;2.90;;;19.40;99.90;;;;;;5094932;28;20622;-64
2023/06/18 03:37:58;;;;;;;2.97;2.72;;;19.30;99.90;;;;;;5087310;28;20207;-64
2023/06/18 03:40:27;;;;;;;2.42;2.33;;;19.30;99.90;;;;;;5088767;28;20699;-64
2023/06/18 03:42:55;;;;;;;2.55;2.35;;;19.30;99.90;;;;;;5083303;28;20304;-63
2023/06/18 03:45:25;;;;;;;2.85;2.67;;;19.20;99.90;;;;;;5086727;28;20223;-64
2023/06/18 03:47:53;;;;;;;2.83;2.67;;;19.20;99.90;;;;;;5088178;28;20220;-63
2023/06/18 03:50:24;;;;;;;3.92;3.63;;;19.30;99.90;;;;;;5085635;28;20206;-64
2023/06/18 03:52:51;;;;;;;4.40;4.00;;;19.20;99.90;;;;;;5086392;28;20685;-64
2023/06/18 03:55:19;;;;;;;3.55;3.35;;;19.20;99.90;;;;;;5085708;28;20201;-64
2023/06/18 03:57:49;;;;;;;3.95;3.58;;;19.20;99.90;;;;;;5085178;28;20187;-64
2023/06/18 04:00:16;;;;;;;3.47;3.22;;;19.20;99.90;;;;;;5085355;28;20269;-64
2023/06/18 04:02:45;;;;;;;3.33;3.13;;;19.20;99.90;;;;;;5085886;28;20220;-64
2023/06/18 04:05:19;;;;;;;3.50;2.88;;;19.20;99.90;;;;;;5095988;28;20208;-64
2023/06/18 04:07:46;;;;;;;2.95;2.75;;;19.20;99.90;;;;;;5084741;28;20243;-64
2023/06/18 04:10:14;;;;;;;2.20;2.10;;;19.20;99.90;;;;;;5086920;28;20196;-64
2023/06/18 04:12:41;;;;;;;3.05;2.75;;;19.20;99.90;;;;;;5082337;28;20275;-65
2023/06/18 04:15:11;;;;;;;2.58;2.38;;;19.20;99.90;;;;;;5091535;28;20211;-64
2023/06/18 04:17:40;;;;;;;2.55;2.35;;;19.20;99.90;;;;;;5079856;28;20197;-64
2023/06/18 04:20:10;;;;;;;2.55;2.40;;;19.20;99.90;;;;;;5091984;28;20250;-64
2023/06/18 04:22:38;;;;;;;2.50;2.40;;;19.20;99.90;;;;;;5089693;28;20198;-62
2023/06/18 04:25:06;;;;;;;2.40;2.30;;;19.30;99.90;;;;;;5086726;28;21010;-63
2023/06/18 04:27:34;;;;;;;2.42;2.33;;;19.20;99.90;;;;;;5088293;28;20292;-63
2023/06/18 04:30:02;;;;;;;2.75;2.55;;;19.20;99.90;;;;;;5092204;28;20292;-63
2023/06/18 04:32:32;;;;;;;3.03;2.10;;;19.30;99.90;;;;;;5085997;28;20567;-63
2023/06/18 04:35:00;;;;;;;2.10;2.00;;;19.30;99.90;;;;;;5106824;28;20201;-63
2023/06/18 04:37:32;;;;;;;2.28;2.17;;;19.30;99.90;;;;;;5082732;28;20886;-62
2023/06/18 04:40:00;;;;;;;2.90;2.70;;;19.20;99.90;;;;;;5092187;28;20224;-63
2023/06/18 04:42:28;;;;;;;2.33;2.22;;;19.30;99.90;;;;;;5090985;28;20300;-63
2023/06/18 04:44:56;;;;;;;2.83;2.63;;;19.30;99.90;;;;;;5084226;28;20279;-63
2023/06/18 04:47:24;;;;;;;2.95;2.75;;;19.30;99.90;;;;;;5089852;28;20293;-63
2023/06/18 04:49:53;;;;;;;2.80;2.60;;;19.30;99.90;;;;;;5090608;28;20224;-62
2023/06/18 04:52:20;;;;;;;2.42;2.33;;;19.30;99.90;;;;;;5088092;28;20275;-63
2023/06/18 04:54:48;;;;;;;2.10;2.00;;;19.40;99.90;;;;;;5092555;28;20212;-63
2023/06/18 04:57:16;;;;;;;2.38;2.25;;;19.50;99.90;;;;;;5090762;28;20322;-62
2023/06/18 04:59:44;;;;;;;2.28;2.17;;;19.50;99.90;;;;;;5086577;28;20212;-62
2023/06/18 05:02:12;;;;;;;3.20;2.90;;;19.50;99.90;;;;;;5089440;28;20212;-63
2023/06/18 05:04:40;;;;;;;3.03;2.83;;;19.60;99.90;;;;;;5099435;28;20250;-63
2023/06/18 05:07:09;;;;;;;2.85;2.65;;;19.60;99.90;;;;;;5087772;28;20224;-64
2023/06/18 05:09:38;;;;;;;2.17;2.08;;;19.60;99.90;;;;;;5090014;28;20288;-63
2023/06/18 05:12:06;;;;;;;2.30;2.10;;;19.60;99.90;;;;;;5088496;28;20224;-63
2023/06/18 05:14:35;;;;;;;2.17;1.98;;;19.60;99.90;;;;;;5087846;28;20200;-63
2023/06/18 05:17:03;;;;;;;2.60;2.50;;;19.70;99.90;;;;;;5083002;28;20196;-63
2023/06/18 05:19:30;;;;;;;3.00;2.80;;;19.70;99.90;;;;;;5089772;28;20197;-64
2023/06/18 05:21:58;;;;;;;2.58;2.33;;;19.70;99.90;;;;;;5084445;28;20211;-64
2023/06/18 05:24:28;;;;;;;2.30;2.20;;;19.70;99.90;;;;;;5083363;28;20205;-64
2023/06/18 05:26:58;;;;;;;1.95;1.85;;;19.90;99.90;;;;;;5083123;28;20213;-63
2023/06/18 05:29:26;;;;;;;1.83;1.73;;;19.90;99.90;;;;;;5083208;28;20628;-63
2023/06/18 05:31:54;;;;;;;2.20;2.10;;;19.90;99.90;;;;;;5091656;28;20216;-63
2023/06/18 05:34:29;;;;;;;2.20;2.10;;;19.90;99.90;;;;;;5089821;28;20303;-63
2023/06/18 05:36:57;;;;;;;2.70;2.05;;;19.90;99.90;;;;;;5086558;28;20205;-63
2023/06/18 05:39:27;;;;;;;2.58;2.47;;;19.90;99.90;;;;;;5089310;28;20211;-63
2023/06/18 05:41:54;;;;;;;2.80;2.60;;;19.90;99.90;;;;;;5091795;28;20267;-64
2023/06/18 05:44:24;;;;;;;2.20;2.10;;;19.90;99.90;;;;;;5103981;27;20291;-64
2023/06/18 05:46:51;;;;;;;1.83;1.73;;;19.90;99.90;;;;;;5090132;28;20201;-63
2023/06/18 05:49:19;;;;;;;2.22;2.13;;;20.00;99.90;;;;;;5081846;28;20228;-63
2023/06/18 05:51:48;;;;;;;2.20;2.10;;;19.90;99.90;;;;;;5088334;28;20250;-63
2023/06/18 05:54:17;;;;;;;1.90;1.80;;;20.00;99.90;;;;;;5090601;28;20208;-64
2023/06/18 05:56:46;;;;;;;1.70;1.60;;;20.10;99.90;;;;;;5086961;28;20228;-64
2023/06/18 05:59:13;;;;;;;2.00;1.90;;;20.10;99.90;;;;;;5090017;28;20593;-64
2023/06/18 06:01:46;;;;;;;1.80;1.70;;;20.10;99.90;;;;;;5089387;28;20208;-63
2023/06/18 06:04:14;;;;;;;1.58;1.48;;;20.20;99.90;;;;;;5090124;28;20245;-64
2023/06/18 06:06:42;;;;;;;1.80;1.70;;;20.20;99.90;;;;;;5089636;28;20497;-64
2023/06/18 06:09:10;;;;;;;1.70;1.60;;;20.30;99.90;;;;;;5088709;28;20240;-64
2023/06/18 06:11:38;;;;;;;2.05;1.95;;;20.30;99.90;;;;;;5084466;28;20185;-64
2023/06/18 06:14:11;;;;;;;2.58;2.38;;;20.30;99.90;;;;;;5087065;28;20544;-62
2023/06/18 06:16:39;;;;;;;1.98;1.88;;;20.30;99.90;;;;;;5095644;28;20209;-63
2023/06/18 06:19:06;;;;;;;1.88;1.77;;;20.40;99.90;;;;;;5102931;28;20205;-63
2023/06/18 06:21:34;;;;;;;1.80;1.70;;;20.40;99.90;;;;;;5089245;28;20223;-63
2023/06/18 06:24:01;;;;;;;1.85;1.75;;;20.40;99.90;;;;;;5081594;28;20193;-63
2023/06/18 06:26:29;;;;;;;1.90;1.80;;;20.40;99.90;;;;;;5088032;28;20663;-63
2023/06/18 06:28:56;;;;;;;2.38;2.17;;;20.50;99.90;;;;;;5088389;28;20221;-63
2023/06/18 06:31:25;;;;;;;1.80;1.70;;;20.50;99.90;;;;;;5086951;28;20197;-62
2023/06/18 06:33:53;;;;;;;2.10;2.00;;;20.60;99.90;;;;;;5085355;28;20216;-63
2023/06/18 06:36:20;;;;;;;2.17;1.98;;;20.60;99.90;;;;;;5089235;28;20204;-63
2023/06/18 06:38:48;;;;;;;2.05;1.95;;;20.60;99.90;;;;;;5085116;28;20291;-63
2023/06/18 06:41:16;;;;;;;1.60;1.50;;;20.60;99.90;;;;;;5085624;28;20563;-63
2023/06/18 06:43:44;;;;;;;1.52;1.52;;;20.70;99.90;;;;;;5084263;28;20204;-63
2023/06/18 06:46:34;;;;;;;1.70;1.60;;;20.70;99.90;;;;;;5081752;28;20657;-64
2023/06/18 06:49:27;;;;;;;1.80;1.70;;;20.70;99.90;;;;;;5084267;28;20300;-63
2023/06/18 06:52:23;;;;;;;2.10;1.92;;;20.80;99.90;;;;;;5085851;28;20218;-64
2023/06/18 06:54:51;;;;;;;2.03;1.92;;;20.90;99.90;;;;;;5084435;28;20211;-63
2023/06/18 06:57:19;;;;;;;1.92;1.83;;;20.90;99.90;;;;;;5086721;28;20204;-63
2023/06/18 06:59:47;;;;;;;1.92;1.83;;;20.90;99.90;;;;;;5086564;28;20207;-63
2023/06/18 07:02:15;;;;;;;1.70;1.60;;;20.90;99.90;;;;;;5080200;28;20193;-63
2023/06/18 07:04:46;;;;;;;1.40;1.40;;;20.90;99.90;;;;;;5085978;28;20192;-63
2023/06/18 07:07:14;;;;;;;1.80;1.70;;;21.00;99.90;;;;;;5085343;28;20283;-63
2023/06/18 07:09:41;;;;;;;1.48;1.48;;;21.00;99.90;;;;;;5087252;28;20786;-64
2023/06/18 07:12:10;;;;;;;1.40;1.40;;;21.10;99.90;;;;;;5089995;28;20223;-63
2023/06/18 07:14:37;;;;;;;1.70;1.60;;;21.10;99.90;;;;;;5085237;28;21010;-63
2023/06/18 07:17:05;;;;;;;2.00;1.90;;;21.30;99.90;;;;;;5083144;28;20192;-63
2023/06/18 07:19:34;;;;;;;1.80;1.70;;;21.30;99.90;;;;;;5089814;28;20193;-63
2023/06/18 07:22:01;;;;;;;1.50;1.42;;;21.40;99.90;;;;;;5084860;28;20204;-63
2023/06/18 07:24:30;;;;;;;1.70;1.60;;;21.50;99.90;;;;;;5081376;28;20188;-63
2023/06/18 07:26:57;;;;;;;1.60;1.50;;;21.50;99.90;;;;;;5088814;28;20200;-63
2023/06/18 07:29:25;;;;;;;1.58;1.48;;;21.50;99.90;;;;;;5084383;28;20589;-63
2023/06/18 07:31:52;;;;;;;1.60;1.50;;;21.50;99.90;;;;;;5088551;28;20196;-64
2023/06/18 07:34:22;;;;;;;2.22;2.08;;;21.50;99.90;;;;;;5087066;28;20232;-64
2023/06/18 07:36:51;;;;;;;2.47;2.38;;;21.50;99.90;;;;;;5085133;28;20223;-63
2023/06/18 07:39:18;;;;;;;1.92;1.83;;;21.50;99.90;;;;;;5089304;28;20184;-63
2023/06/18 07:41:47;;;;;;;1.92;1.83;;;21.60;99.90;;;;;;5090741;28;20583;-63
2023/06/18 07:44:15;;;;;;;1.65;1.48;;;21.60;99.90;;;;;;5091885;28;20203;-63
2023/06/18 07:46:43;;;;;;;1.42;1.33;;;21.70;99.90;;;;;;5093813;28;20196;-63
2023/06/18 07:49:10;;;;;;;1.45;1.42;;;21.70;99.90;;;;;;5091522;28;20219;-62
2023/06/18 07:51:38;;;;;;;1.60;1.50;;;21.70;99.90;;;;;;5089114;28;20189;-63
2023/06/18 07:54:09;;;;;;;1.52;1.48;;;21.70;99.90;;;;;;5092651;28;20355;-63
2023/06/18 07:56:37;;;;;;;1.70;1.60;;;21.80;99.90;;;;;;5087719;28;20216;-63
2023/06/18 07:59:04;;;;;;;1.65;1.55;;;21.90;99.90;;;;;;5093276;28;20732;-63
2023/06/18 08:01:32;;;;;;;1.60;1.50;;;22.00;99.90;;;;;;5093268;28;20201;-63
2023/06/18 08:03:59;;;;;;;1.55;1.45;;;22.10;99.90;;;;;;5085676;28;20207;-63
2023/06/18 08:06:26;;;;;;;1.33;1.33;;;22.10;99.90;;;;;;5087870;28;20197;-64
2023/06/18 08:08:54;;;;;;;1.00;1.00;;;22.20;99.90;;;;;;5084841;28;20537;-63
2023/06/18 08:11:23;;;;;;;1.30;1.20;;;22.20;99.90;;;;;;5086895;28;20200;-64
2023/06/18 08:13:51;;;;;;;1.30;1.30;;;22.30;99.90;;;;;;5092813;28;20242;-64
2023/06/18 08:16:18;;;;;;;1.48;1.38;;;22.30;99.90;;;;;;5092653;28;20192;-64
2023/06/18 08:18:46;;;;;;;1.98;1.88;;;22.40;99.80;;;;;;5085978;28;20529;-63
2023/06/18 08:21:13;;;;;;;2.22;2.13;;;22.40;99.50;;;;;;5093555;28;20204;-64
2023/06/18 08:23:41;;;;;;;2.55;2.03;;;22.30;99.40;;;;;;5089381;28;20197;-63
2023/06/18 08:26:10;;;;;;;2.47;2.38;;;22.30;99.30;;;;;;5079009;28;20647;-63
2023/06/18 08:28:42;;;;;;;2.22;2.10;;;22.30;99.10;;;;;;5092558;28;20205;-63
2023/06/18 08:31:10;;;;;;;2.00;1.90;;;22.20;99.10;;;;;;5091935;28;20200;-63
2023/06/18 08:33:37;;;;;;;1.90;1.80;;;22.20;99.10;;;;;;5082208;28;20321;-63
2023/06/18 08:36:08;;;;;;;1.67;1.58;;;22.20;99.20;;;;;;5092155;28;20226;-63
2023/06/18 08:38:35;;;;;;;1.30;1.30;;;22.20;99.20;;;;;;5091585;28;20193;-63
2023/06/18 08:41:03;;;;;;;1.40;1.30;;;22.30;99.20;;;;;;5070616;28;20188;-63
2023/06/18 08:43:34;;;;;;;1.33;1.33;;;22.40;99.20;;;;;;5081142;28;20201;-63
2023/06/18 08:46:09;;;;;;;1.38;1.27;;;22.40;99.10;;;;;;5087222;28;20185;-63
2023/06/18 08:48:45;;;;;;;1.27;1.27;;;22.40;99.00;;;;;;5088346;28;20245;-63
2023/06/18 08:51:13;;;;;;;1.25;1.25;;;22.50;99.00;;;;;;5088827;28;20204;-63
2023/06/18 08:53:45;;;;;;;2.00;1.30;;;22.60;99.00;;;;;;5086820;28;20184;-63
2023/06/18 08:56:16;;;;;;;1.30;1.30;;;22.60;98.90;;;;;;5088362;28;20188;-64
2023/06/18 08:58:50;;;;;;;1.60;1.50;;;22.60;99.00;;;;;;5088540;28;20185;-63
2023/06/18 09:01:20;;;;;;;3.10;2.60;;;22.60;99.10;;;;;;5084375;28;20220;-63
2023/06/18 09:03:51;;;;;;;3.08;2.88;;;22.60;99.10;;;;;;5090509;28;20196;-63
2023/06/18 09:06:19;;;;;;;2.90;2.70;;;22.60;99.00;;;;;;5078913;28;20738;-63
2023/06/18 09:08:48;;;;;;;3.08;2.80;;;22.60;99.00;;;;;;5083555;28;20309;-62
2023/06/18 09:11:16;;;;;;;3.58;3.28;;;22.60;99.00;;;;;;5069689;28;20212;-64
2023/06/18 09:13:45;;;;;;;2.80;2.60;;;22.60;99.00;;;;;;5089087;28;20196;-64
2023/06/18 09:16:13;;;;;;;2.20;2.10;;;22.60;99.00;;;;;;5078964;28;20213;-63
2023/06/18 09:18:43;;;;;;;3.03;2.83;;;22.60;99.10;;;;;;5081667;28;20623;-63
2023/06/18 09:21:11;;;;;;;2.70;2.50;;;22.60;99.10;;;;;;5096016;28;20193;-63
2023/06/18 09:23:39;;;;;;;2.50;2.30;;;22.70;99.20;;;;;;5086205;28;20298;-62
2023/06/18 09:26:12;;;;;;;2.17;2.08;;;22.80;99.20;;;;;;5088147;28;20228;-62
2023/06/18 09:28:42;;;;;;;2.72;2.53;;;22.90;99.50;;;;;;5089001;28;20276;-62
2023/06/18 09:31:14;;;;;;;3.00;2.80;;;22.90;99.10;;;;;;5083588;28;20201;-63
2023/06/18 09:33:44;;;;;;;2.33;2.15;;;22.90;99.00;;;;;;5088455;28;20191;-62
2023/06/18 09:36:14;;;;;;;2.05;1.95;;;22.90;99.00;;;;;;5085171;28;20184;-63
2023/06/18 09:38:43;;;;;;;2.50;2.38;;;22.90;99.00;;;;;;5081043;28;20240;-62
2023/06/18 09:41:12;;;;;;;2.97;2.78;;;23.00;99.10;;;;;;5088706;28;20195;-63
2023/06/18 09:43:43;;;;;;;3.15;2.95;;;23.00;98.90;;;;;;5088985;28;20317;-63
2023/06/18 09:46:11;;;;;;;2.80;2.60;;;22.90;98.80;;;;;;5098778;28;20304;-63
2023/06/18 09:48:44;;;;;;;5.22;4.00;;;23.10;98.90;;;;;;5073216;28;20212;-63
2023/06/18 09:51:19;;;;;;;5.47;3.88;;;23.20;98.80;;;;;;5084032;28;20284;-62
2023/06/18 09:53:56;;;;;;;4.43;4.03;;;23.30;98.80;;;;;;5085730;28;20212;-62
2023/06/18 09:56:24;;;;;;;4.35;3.95;;;23.30;98.50;;;;;;5087032;28;20192;-62
2023/06/18 09:58:53;;;;;;;3.67;3.38;;;23.30;98.40;;;;;;5083417;28;20355;-64
2023/06/18 10:01:25;;;;;;;4.25;3.83;;;23.30;98.30;;;;;;5082718;28;20307;-63
2023/06/18 10:03:54;;;;;;;3.83;3.53;;;23.30;98.20;;;;;;5081700;28;20197;-63
2023/06/18 10:06:23;;;;;;;4.07;3.70;;;23.30;98.30;;;;;;5073834;28;20276;-63
2023/06/18 10:08:52;;;;;;;5.40;3.70;;;23.40;98.30;;;;;;5084202;28;20263;-63
2023/06/18 10:11:21;;;;;;;4.05;3.75;;;23.50;98.20;;;;;;5087582;28;20236;-63
2023/06/18 10:13:49;;;;;;;4.10;3.80;;;23.50;98.10;;;;;;5079903;28;20207;-62
2023/06/18 10:16:20;;;;;;;3.70;3.40;;;23.60;97.90;;;;;;5088734;28;20283;-63
2023/06/18 10:19:11;;;;;;;3.20;3.00;;;23.60;97.80;;;;;;5087474;28;20840;-63
2023/06/18 10:21:46;;;;;;;3.58;3.30;;;23.60;97.80;;;;;;5079233;28;20186;-62
2023/06/18 10:24:18;;;;;;;4.10;3.80;;;23.60;97.50;;;;;;5077405;28;20604;-63
2023/06/18 10:26:47;;;;;;;3.35;3.15;;;23.60;97.50;;;;;;5083457;28;20274;-62
2023/06/18 10:29:18;;;;;;;3.08;2.88;;;23.60;97.60;;;;;;5086080;28;20282;-63
2023/06/18 10:31:47;;;;;;;3.53;3.22;;;23.60;97.70;;;;;;5085123;28;20292;-63
2023/06/18 10:34:18;;;;;;;4.55;4.10;;;23.70;97.50;;;;;;5080177;28;20192;-63
2023/06/18 10:36:47;;;;;;;4.63;4.25;;;23.80;97.50;;;;;;5080422;28;20245;-62
2023/06/18 10:39:15;;;;;;;4.32;4.00;;;23.90;97.60;;;;;;5086533;28;20211;-63
2023/06/18 10:41:46;;;;;;;4.45;4.15;;;24.00;97.50;;;;;;5082713;28;20688;-63
2023/06/18 10:44:13;;;;;;;4.63;4.32;;;24.00;97.50;;;;;;5079194;28;20553;-62
2023/06/18 10:46:41;;;;;;;4.90;4.50;;;24.10;97.50;;;;;;5074789;28;20200;-63
2023/06/18 10:49:19;;;;;;;4.47;4.18;;;24.00;97.50;;;;;;5080814;28;20200;-62
2023/06/18 10:52:24;;;;;;;3.45;3.25;;;24.00;97.50;;;;;;5082925;28;20687;-62
2023/06/18 10:54:55;;;;;;;4.05;3.65;;;23.90;97.70;;;;;;5083865;28;20798;-63
2023/06/18 10:57:26;;;;;;;4.10;3.80;;;23.90;97.70;;;;;;5075697;28;20192;-63
2023/06/18 10:59:57;;;;;;;4.50;4.10;;;24.00;97.80;;;;;;5090023;28;20259;-62
2023/06/18 11:02:34;;;;;;;4.18;3.88;;;24.10;97.70;;;;;;5088706;28;20565;-63
2023/06/18 11:05:07;;;;;;;4.18;3.85;;;24.30;97.70;;;;;;5085328;28;20223;-63
2023/06/18 11:07:34;;;;;;;4.63;4.22;;;24.30;97.50;;;;;;5084178;28;20841;-63
2023/06/18 11:10:06;;;;;;;4.18;3.88;;;24.40;97.40;;;;;;5078625;28;20293;-62
2023/06/18 11:12:38;;;;;;;4.78;4.18;;;24.50;97.40;;;;;;5082072;28;20205;-62
2023/06/18 11:15:16;;;;;;;4.10;3.80;;;24.50;97.20;;;;;;5084006;28;20208;-63
2023/06/18 11:17:46;;;;;;;4.30;4.00;;;24.60;97.10;;;;;;5079694;28;20184;-63
2023/06/18 11:20:15;;;;;;;4.05;3.70;;;24.60;97.00;;;;;;5084983;28;20293;-62
2023/06/18 11:22:46;;;;;;;4.38;3.97;;;24.60;96.70;;;;;;5084063;28;20185;-62
2023/06/18 11:25:15;;;;;;;4.10;3.80;;;24.60;96.60;;;;;;5075557;28;20185;-63
2023/06/18 11:27:45;;;;;;;3.58;3.38;;;24.50;96.60;;;;;;5085585;28;20228;-63
2023/06/18 11:30:14;;;;;;;3.70;3.40;;;24.50;96.70;;;;;;5083561;28;20288;-63
2023/06/18 11:32:42;;;;;;;4.00;3.70;;;24.50;96.80;;;;;;5080038;28;20311;-63
2023/06/18 11:35:10;;;;;;;3.90;3.50;;;24.40;96.60;;;;;;5083820;28;20192;-63
2023/06/18 11:37:41;;;;;;;4.25;3.85;;;24.40;96.60;;;;;;5085739;28;20654;-63
2023/06/18 11:40:12;;;;;;;3.97;3.67;;;24.30;96.50;;;;;;5077664;28;20340;-63
2023/06/18 11:42:48;;;;;;;4.00;3.70;;;24.20;96.50;;;;;;5089030;28;20192;-63
2023/06/18 11:45:19;;;;;;;3.97;3.67;;;24.20;96.60;;;;;;5086920;28;21228;-63
2023/06/18 11:47:48;;;;;;;4.15;3.75;;;24.20;96.70;;;;;;5083454;28;20279;-62
2023/06/18 11:50:16;;;;;;;3.47;3.28;;;24.10;96.80;;;;;;5079586;28;20216;-63
2023/06/18 11:52:46;;;;;;;3.70;3.40;;;24.00;96.90;;;;;;5081320;28;20186;-64
2023/06/18 11:55:18;;;;;;;3.72;3.45;;;24.00;97.00;;;;;;5077608;28;20208;-63
2023/06/18 11:57:46;;;;;;;4.45;4.05;;;24.00;97.10;;;;;;5088706;28;20189;-63
2023/06/18 12:00:14;;;;;;;5.13;4.63;;;24.00;97.10;;;;;;5084725;28;20199;-64
2023/06/18 12:02:42;;;;;;;3.60;3.40;;;24.20;97.10;;;;;;5088338;28;20223;-64
2023/06/18 12:05:11;;;;;;;3.90;3.70;;;24.30;97.00;;;;;;5088754;28;20192;-64
2023/06/18 12:07:41;;;;;;;4.55;4.15;;;24.30;96.80;;;;;;5077871;28;20706;-63
2023/06/18 12:10:13;;;;;;;3.92;3.63;;;24.40;96.80;;;;;;5070171;28;20866;-63
2023/06/18 12:12:50;;;;;;;4.30;3.90;;;24.40;96.70;;;;;;5085882;28;20200;-64
2023/06/18 12:15:24;;;;;;;4.43;4.03;;;24.50;96.60;;;;;;5080494;28;20203;-63
2023/06/18 12:17:58;;;;;;;4.18;3.88;;;24.60;96.40;;;;;;5084995;28;20203;-63
2023/06/18 12:20:27;;;;;;;4.25;3.88;;;24.70;96.40;;;;;;5088800;28;20197;-63
2023/06/18 12:22:56;;;;;;;4.05;3.75;;;24.70;96.30;;;;;;5087087;28;20242;-62
2023/06/18 12:25:27;;;;;;;4.07;3.78;;;24.80;96.30;;;;;;5086867;28;20208;-61
2023/06/18 12:27:56;;;;;;;3.47;3.10;;;24.90;96.40;;;;;;5086211;28;20206;-62
2023/06/18 12:30:28;;;;;;;4.10;3.80;;;25.00;96.40;;;;;;5091778;28;20329;-62
2023/06/18 12:33:03;;;;;;;4.07;3.78;;;25.00;96.00;;;;;;5091363;28;20248;-63
2023/06/18 12:35:31;;;;;;;3.80;3.60;;;25.00;95.90;;;;;;5079932;28;20207;-62
2023/06/18 12:38:03;;;;;;;3.30;3.00;;;24.90;95.90;;;;;;5078037;28;20641;-62
2023/06/18 12:40:35;;;;;;;3.70;3.40;;;24.90;96.00;;;;;;5086287;28;20188;-63
2023/06/18 12:43:09;;;;;;;3.47;3.28;;;24.90;95.70;;;;;;5088921;28;20771;-62
2023/06/18 12:45:38;;;;;;;3.78;3.47;;;24.80;95.70;;;;;;5090907;28;20540;-62
2023/06/18 12:48:14;;;;;;;4.22;3.03;;;24.80;95.80;;;;;;5092352;28;20192;-63
2023/06/18 12:50:45;;;;;;;3.72;3.42;;;24.80;96.20;;;;;;5089191;28;20204;-62
2023/06/18 12:53:14;;;;;;;3.92;3.63;;;24.80;96.00;;;;;;5086516;28;20623;-62
2023/06/18 12:55:44;;;;;;;3.10;2.90;;;24.80;96.00;;;;;;5085418;28;20200;-63
2023/06/18 12:58:21;;;;;;;5.28;3.33;;;24.90;96.10;;;;;;5089393;28;20285;-62
2023/06/18 13:00:53;;;;;;;3.67;3.38;;;24.90;96.00;;;;;;5085517;28;20192;-62